createdAt,value
2022-09-11T18:10:41.851Z,2.50
2022-09-11T18:11:42.834Z,2.50
2022-09-11T18:12:42.803Z,2.90
2022-09-11T18:13:42.878Z,2.50
2022-09-11T18:14:42.789Z,2.80
2022-09-11T18:15:42.772Z,2.60
2022-09-11T18:16:42.777Z,2.70
2022-09-11T18:17:42.750Z,2.50
2022-09-11T18:18:42.738Z,2.80
2022-09-11T18:19:42.728Z,2.80
2022-09-11T18:20:42.714Z,2.50
2022-09-11T18:21:46.657Z,2.70
2022-09-11T18:22:42.699Z,2.80
2022-09-11T18:23:42.710Z,2.70
2022-09-11T18:24:42.673Z,2.70
2022-09-11T18:25:42.669Z,2.70
2022-09-11T18:26:42.675Z,2.60
2022-09-11T18:27:42.679Z,2.60
2022-09-11T18:28:42.792Z,2.50
2022-09-11T18:29:42.693Z,2.40
2022-09-11T18:30:42.627Z,2.60
2022-09-11T18:31:42.709Z,2.70
2022-09-11T18:32:42.596Z,2.80
2022-09-11T18:33:42.620Z,2.80
2022-09-11T18:34:42.618Z,3.00
2022-09-11T18:35:42.565Z,2.70
2022-09-11T18:36:42.571Z,2.70
2022-09-11T18:37:42.548Z,2.60
2022-09-11T18:38:42.528Z,2.70
2022-09-11T18:39:42.585Z,2.70
2022-09-11T18:40:42.504Z,2.70
2022-09-11T18:41:42.537Z,2.90
2022-09-11T18:42:42.486Z,2.80
2022-09-11T18:43:42.571Z,2.50
2022-09-11T18:44:42.484Z,2.70
2022-09-11T18:45:42.456Z,2.50
2022-09-11T18:46:42.604Z,2.70
2022-09-11T18:47:42.438Z,3.10
2022-09-11T18:48:42.435Z,2.60
2022-09-11T18:49:42.413Z,2.80
2022-09-11T18:50:42.431Z,2.60
2022-09-11T18:51:42.440Z,2.70
2022-09-11T18:52:42.389Z,2.70
2022-09-11T18:53:42.486Z,2.90
2022-09-11T18:54:42.371Z,2.70
2022-09-11T18:55:42.597Z,2.60
2022-09-11T18:56:42.373Z,2.70
2022-09-11T18:57:45.864Z,2.80
2022-09-11T18:58:42.336Z,2.50
2022-09-11T18:59:42.311Z,2.80
2022-09-11T19:00:42.388Z,2.70
2022-09-11T19:01:42.522Z,2.80
2022-09-11T19:02:42.280Z,2.80
2022-09-11T19:03:42.400Z,3.00
2022-09-11T19:04:42.251Z,3.10
2022-09-11T19:05:42.305Z,2.90
2022-09-11T19:06:42.252Z,2.70
2022-09-11T19:07:42.246Z,2.70
2022-09-11T19:08:42.213Z,2.80
2022-09-11T19:09:45.817Z,2.70
2022-09-11T19:10:42.190Z,2.50
2022-09-11T19:11:42.205Z,2.70
2022-09-11T19:12:42.171Z,2.80
2022-09-11T19:13:42.224Z,2.80
2022-09-11T19:14:42.148Z,2.90
2022-09-11T19:15:42.146Z,2.80
2022-09-11T19:16:42.166Z,2.70
2022-09-11T19:17:42.211Z,2.70
2022-09-11T19:18:42.113Z,2.70
2022-09-11T19:19:42.100Z,3.20
2022-09-11T19:20:42.087Z,3.00
2022-09-11T19:21:42.101Z,2.80
2022-09-11T19:22:42.065Z,2.80
2022-09-11T19:23:42.136Z,2.90
2022-09-11T19:24:42.062Z,3.20
2022-09-11T19:25:42.060Z,2.90
2022-09-11T19:26:42.050Z,2.80
2022-09-11T19:27:42.021Z,3.00
2022-09-11T19:28:42.000Z,2.70
2022-09-11T19:29:42.001Z,2.90
2022-09-11T19:30:43.242Z,2.80
2022-09-11T19:31:42.040Z,2.90
2022-09-11T19:32:41.961Z,3.00
2022-09-11T19:33:42.042Z,3.10
2022-09-11T19:34:46.897Z,3.00
2022-09-11T19:35:41.938Z,3.30
2022-09-11T19:36:42.062Z,3.00
2022-09-11T19:37:41.911Z,3.10
2022-09-11T19:38:41.896Z,3.30
2022-09-11T19:39:41.938Z,3.30
2022-09-11T19:40:41.880Z,2.80
2022-09-11T19:41:41.890Z,3.40
2022-09-11T19:42:41.855Z,3.10
2022-09-11T19:43:41.974Z,3.00
2022-09-11T19:44:41.833Z,3.20
2022-09-11T19:45:42.028Z,3.30
2022-09-11T19:46:41.941Z,3.30
2022-09-11T19:47:41.911Z,3.40
2022-09-11T19:48:41.792Z,3.30
2022-09-11T19:49:41.789Z,3.30
2022-09-11T19:50:41.780Z,3.60
2022-09-11T19:51:41.785Z,3.20
2022-09-11T19:52:41.801Z,3.40
2022-09-11T19:53:41.743Z,3.40
2022-09-11T19:54:41.731Z,3.60
2022-09-11T19:55:41.715Z,3.50
2022-09-11T19:56:41.728Z,3.50
2022-09-11T19:57:41.696Z,3.30
2022-09-11T19:58:41.706Z,3.40
2022-09-11T19:59:41.677Z,3.50
2022-09-11T20:00:41.778Z,3.10
2022-09-11T20:01:41.724Z,3.30
2022-09-11T20:02:41.651Z,3.10
2022-09-11T20:03:41.649Z,3.40
2022-09-11T20:04:41.632Z,3.20
2022-09-11T20:05:41.615Z,3.40
2022-09-11T20:06:42.086Z,3.50
2022-09-11T20:07:41.593Z,3.80
2022-09-11T20:08:41.587Z,3.40
2022-09-11T20:09:41.621Z,3.60
2022-09-11T20:10:41.568Z,3.50
2022-09-11T20:11:41.570Z,3.60
2022-09-11T20:12:41.545Z,3.50
2022-09-11T20:13:41.644Z,3.40
2022-09-11T20:14:42.814Z,3.50
2022-09-11T20:15:41.508Z,3.30
2022-09-11T20:16:41.530Z,3.60
2022-09-11T20:17:41.498Z,3.40
2022-09-11T20:18:41.483Z,3.40
2022-09-11T20:19:41.470Z,3.50
2022-09-11T20:20:45.348Z,3.40
2022-09-11T20:21:41.467Z,3.30
2022-09-11T20:22:41.438Z,3.50
2022-09-11T20:23:41.549Z,3.50
2022-09-11T20:24:41.421Z,3.60
2022-09-11T20:25:41.403Z,3.10
2022-09-11T20:26:41.418Z,3.80
2022-09-11T20:27:41.384Z,3.80
2022-09-11T20:28:41.380Z,3.80
2022-09-11T20:29:41.367Z,3.70
2022-09-11T20:30:41.358Z,3.50
2022-09-11T20:31:49.098Z,3.90
2022-09-11T20:32:41.343Z,4.10
2022-09-11T20:33:41.399Z,3.90
2022-09-11T20:34:41.316Z,3.90
2022-09-11T20:35:41.299Z,3.90
2022-09-11T20:36:41.317Z,4.00
2022-09-11T20:37:41.278Z,4.10
2022-09-11T20:38:41.274Z,4.20
2022-09-11T20:39:41.306Z,3.90
2022-09-11T20:40:41.252Z,4.10
2022-09-11T20:41:41.257Z,4.30
2022-09-11T20:42:41.231Z,4.60
2022-09-11T20:43:41.283Z,3.80
2022-09-11T20:44:41.214Z,4.10
2022-09-11T20:45:41.196Z,4.20
2022-09-11T20:46:41.261Z,4.50
2022-09-11T20:47:41.183Z,4.00
2022-09-11T20:48:41.173Z,4.30
2022-09-11T20:49:41.157Z,4.30
2022-09-11T20:50:41.151Z,4.00
2022-09-11T20:51:41.158Z,4.50
2022-09-11T20:52:41.129Z,4.20
2022-09-11T20:53:41.111Z,4.30
2022-09-11T20:54:41.107Z,4.10
2022-09-11T20:55:41.094Z,4.20
2022-09-11T20:56:41.108Z,4.20
2022-09-11T20:57:41.072Z,4.40
2022-09-11T20:58:41.071Z,4.20
2022-09-11T20:59:41.053Z,4.10
2022-09-11T21:00:41.068Z,4.30
2022-09-11T21:01:41.100Z,4.20
2022-09-11T21:02:41.022Z,4.20
2022-09-11T21:03:41.108Z,4.30
2022-09-11T21:04:41.003Z,4.50
2022-09-11T21:05:40.995Z,4.40
2022-09-11T21:06:41.004Z,4.10
2022-09-11T21:07:40.970Z,4.20
2022-09-11T21:08:40.965Z,4.30
2022-09-11T21:09:40.952Z,4.40
2022-09-11T21:10:40.943Z,4.40
2022-09-11T21:11:40.945Z,4.30
2022-09-11T21:12:40.922Z,4.60
2022-09-11T21:13:40.949Z,4.30
2022-09-11T21:14:40.904Z,4.60
2022-09-11T21:15:40.885Z,5.00
2022-09-11T21:16:40.984Z,4.70
2022-09-11T21:17:40.866Z,4.60
2022-09-11T21:18:40.858Z,4.50
2022-09-11T21:19:40.844Z,4.60
2022-09-11T21:20:40.840Z,4.50
2022-09-11T21:21:40.842Z,4.80
2022-09-11T21:22:40.816Z,4.60
2022-09-11T21:23:40.825Z,4.50
2022-09-11T21:24:40.795Z,4.60
2022-09-11T21:25:40.783Z,4.50
2022-09-11T21:26:40.793Z,4.40
2022-09-11T21:27:40.762Z,4.50
2022-09-11T21:28:40.753Z,4.60
2022-09-11T21:29:40.739Z,4.40
2022-09-11T21:30:40.733Z,4.70
2022-09-11T21:31:40.757Z,4.90
2022-09-11T21:32:40.712Z,4.70
2022-09-11T21:33:40.801Z,4.80
2022-09-11T21:34:40.691Z,4.70
2022-09-11T21:35:40.679Z,4.80
2022-09-11T21:36:40.689Z,4.90
2022-09-11T21:37:40.656Z,4.90
2022-09-11T21:38:40.650Z,5.00
2022-09-11T21:39:40.687Z,4.80
2022-09-11T21:40:40.631Z,4.60
2022-09-11T21:41:40.633Z,5.00
2022-09-11T21:42:40.611Z,4.70
2022-09-11T21:43:40.628Z,5.20
2022-09-11T21:44:40.588Z,4.90
2022-09-11T21:45:40.581Z,4.80
2022-09-11T21:46:40.622Z,4.80
2022-09-11T21:47:40.552Z,5.20
2022-09-11T21:48:40.547Z,4.80
2022-09-11T21:49:40.533Z,4.90
2022-09-11T21:50:40.528Z,5.00
2022-09-11T21:51:40.530Z,5.10
2022-09-11T21:52:40.504Z,5.50
2022-09-11T21:53:40.492Z,5.80
2022-09-11T21:54:40.484Z,5.10
2022-09-11T21:55:40.469Z,5.40
2022-09-11T21:56:40.480Z,5.00
2022-09-11T21:57:40.453Z,5.10
2022-09-11T21:58:40.442Z,5.50
2022-09-11T21:59:40.428Z,4.90
2022-09-11T22:00:43.005Z,4.80
2022-09-11T22:01:40.456Z,4.90
2022-09-11T22:02:40.402Z,5.10
2022-09-11T22:03:40.391Z,5.30
2022-09-11T22:04:40.487Z,5.40
2022-09-11T22:05:40.363Z,5.00
2022-09-11T22:06:40.377Z,4.90
2022-09-11T22:07:40.342Z,5.40
2022-09-11T22:08:40.339Z,5.10
2022-09-11T22:09:40.320Z,5.20
2022-09-11T22:10:40.318Z,5.50
2022-09-11T22:11:40.318Z,5.40
2022-09-11T22:12:40.296Z,5.10
2022-09-11T22:13:40.288Z,5.50
2022-09-11T22:14:40.276Z,5.60
2022-09-11T22:15:40.260Z,5.00
2022-09-11T22:16:40.354Z,5.60
2022-09-11T22:17:40.238Z,5.60
2022-09-11T22:18:40.236Z,5.60
2022-09-11T22:19:40.216Z,5.50
2022-09-11T22:20:40.212Z,5.50
2022-09-11T22:21:40.215Z,5.10
2022-09-11T22:22:40.194Z,5.50
2022-09-11T22:23:40.175Z,5.60
2022-09-11T22:24:40.171Z,5.90
2022-09-11T22:25:40.160Z,5.50
2022-09-11T22:26:40.170Z,5.70
2022-09-11T22:27:40.136Z,6.00
2022-09-11T22:28:40.129Z,6.20
2022-09-11T22:29:42.895Z,6.10
2022-09-11T22:30:40.114Z,6.00
2022-09-11T22:31:40.182Z,6.00
2022-09-11T22:32:40.088Z,5.70
2022-09-11T22:33:40.072Z,5.90
2022-09-11T22:34:40.127Z,6.10
2022-09-11T22:35:40.051Z,6.40
2022-09-11T22:36:40.069Z,6.50
2022-09-11T22:37:40.033Z,6.40
2022-09-11T22:38:40.025Z,6.50
2022-09-11T22:39:40.118Z,6.40
2022-09-11T22:40:40.003Z,6.10
2022-09-11T22:41:40.008Z,6.40
2022-09-11T22:42:39.984Z,6.30
2022-09-11T22:43:39.973Z,6.40
2022-09-11T22:44:40.022Z,6.60
2022-09-11T22:45:40.023Z,6.70
2022-09-11T22:46:39.967Z,6.50
2022-09-11T22:47:39.925Z,6.90
2022-09-11T22:48:39.921Z,6.40
2022-09-11T22:49:39.966Z,6.50
2022-09-11T22:50:39.904Z,6.40
2022-09-11T22:51:39.908Z,6.00
2022-09-11T22:52:39.880Z,6.30
2022-09-11T22:53:39.865Z,6.50
2022-09-11T22:54:39.859Z,6.10
2022-09-11T22:55:39.844Z,6.30
2022-09-11T22:56:39.858Z,6.40
2022-09-11T22:57:39.826Z,6.60
2022-09-11T22:58:39.817Z,5.80
2022-09-11T22:59:39.809Z,6.40
2022-09-11T23:00:39.867Z,6.00
2022-09-11T23:01:39.862Z,6.20
2022-09-11T23:02:39.776Z,6.20
2022-09-11T23:03:39.764Z,6.50
2022-09-11T23:04:39.761Z,6.60
2022-09-11T23:05:39.740Z,6.60
2022-09-11T23:06:39.752Z,6.60
2022-09-11T23:07:39.721Z,6.30
2022-09-11T23:08:39.714Z,6.60
2022-09-11T23:09:39.699Z,6.30
2022-09-11T23:10:39.693Z,6.40
2022-09-11T23:11:39.707Z,6.50
2022-09-11T23:12:39.673Z,6.80
2022-09-11T23:13:39.659Z,6.40
2022-09-11T23:14:39.652Z,6.40
2022-09-11T23:15:39.637Z,6.50
2022-09-11T23:16:39.691Z,6.20
2022-09-11T23:17:39.617Z,6.30
2022-09-11T23:18:39.609Z,6.30
2022-09-11T23:19:39.596Z,6.80
2022-09-11T23:20:39.590Z,6.30
2022-09-11T23:21:39.599Z,6.10
2022-09-11T23:22:39.572Z,6.80
2022-09-11T23:23:39.554Z,6.40
2022-09-11T23:24:39.550Z,6.50
2022-09-11T23:25:39.618Z,6.50
2022-09-11T23:26:39.578Z,6.50
2022-09-11T23:27:39.512Z,6.20
2022-09-11T23:28:39.510Z,6.80
2022-09-11T23:29:39.492Z,6.80
2022-09-11T23:30:39.501Z,6.80
2022-09-11T23:31:39.504Z,6.60
2022-09-11T23:32:41.899Z,6.30
2022-09-11T23:33:39.449Z,6.60
2022-09-11T23:34:39.473Z,6.50
2022-09-11T23:35:39.437Z,6.70
2022-09-11T23:36:39.444Z,6.80
2022-09-11T23:37:42.353Z,5.90
2022-09-11T23:38:39.412Z,6.40
2022-09-11T23:39:39.421Z,6.80
2022-09-11T23:40:39.382Z,6.50
2022-09-11T23:41:39.390Z,6.10
2022-09-11T23:42:39.360Z,6.70
2022-09-11T23:43:39.351Z,6.90
2022-09-11T23:44:39.338Z,6.60
2022-09-11T23:45:39.357Z,7.20
2022-09-11T23:46:39.345Z,6.50
2022-09-11T23:47:39.319Z,6.60
2022-09-11T23:48:39.299Z,6.50
2022-09-11T23:49:39.286Z,6.50
2022-09-11T23:50:39.280Z,6.80
2022-09-11T23:51:39.285Z,6.90
2022-09-11T23:52:39.259Z,6.80
2022-09-11T23:53:39.244Z,7.00
2022-09-11T23:54:39.235Z,6.70
2022-09-11T23:55:42.302Z,6.90
2022-09-11T23:56:39.235Z,7.00
2022-09-11T23:57:39.198Z,6.70
2022-09-11T23:58:40.122Z,7.20
2022-09-11T23:59:39.189Z,6.60
